sensor_id;sensor_type;location;lat;lon;timestamp;pressure;altitude;pressure_sealevel;temperature;humidity
73941;BME280;62294;48.554;10.202;2023-04-03T00:01:05;96228.47;;;2.18;100.00
73941;BME280;62294;48.554;10.202;2023-04-03T00:03:31;96239.94;;;2.09;100.00
73941;BME280;62294;48.554;10.202;2023-04-03T00:05:58;96241.91;;;2.15;100.00
73941;BME280;62294;48.554;10.202;2023-04-03T00:08:25;96251.19;;;1.85;100.00
73941;BME280;62294;48.554;10.202;2023-04-03T00:10:52;96253.19;;;1.91;100.00
73941;BME280;62294;48.554;10.202;2023-04-03T00:13:18;96245.84;;;2.03;100.00
73941;BME280;62294;48.554;10.202;2023-04-03T00:15:45;96254.19;;;2.14;100.00
73941;BME280;62294;48.554;10.202;2023-04-03T00:18:11;96262.56;;;2.18;100.00
73941;BME280;62294;48.554;10.202;2023-04-03T00:20:38;96266.81;;;2.19;100.00
73941;BME280;62294;48.554;10.202;2023-04-03T00:23:05;96275.34;;;2.13;100.00
73941;BME280;62294;48.554;10.202;2023-04-03T00:25:31;96281.91;;;2.09;100.00
73941;BME280;62294;48.554;10.202;2023-04-03T00:27:58;96293.34;;;2.00;100.00
73941;BME280;62294;48.554;10.202;2023-04-03T00:30:25;96299.25;;;1.94;100.00
73941;BME280;62294;48.554;10.202;2023-04-03T00:32:52;96301.72;;;2.20;100.00
73941;BME280;62294;48.554;10.202;2023-04-03T00:35:20;96313.84;;;2.12;100.00
73941;BME280;62294;48.554;10.202;2023-04-03T00:37:47;96336.28;;;2.07;100.00
73941;BME280;62294;48.554;10.202;2023-04-03T00:40:15;96352.78;;;1.91;100.00
73941;BME280;62294;48.554;10.202;2023-04-03T00:42:43;96366.38;;;1.87;100.00
73941;BME280;62294;48.554;10.202;2023-04-03T00:47:38;96397.00;;;1.86;100.00
73941;BME280;62294;48.554;10.202;2023-04-03T00:50:05;96413.84;;;1.84;100.00
73941;BME280;62294;48.554;10.202;2023-04-03T00:52:33;96435.44;;;1.78;100.00
73941;BME280;62294;48.554;10.202;2023-04-03T00:55:03;96441.84;;;1.83;100.00
73941;BME280;62294;48.554;10.202;2023-04-03T00:57:31;96445.84;;;1.95;100.00
73941;BME280;62294;48.554;10.202;2023-04-03T01:00:03;96448.38;;;2.05;100.00
73941;BME280;62294;48.554;10.202;2023-04-03T01:02:30;96461.31;;;2.06;100.00
73941;BME280;62294;48.554;10.202;2023-04-03T01:04:57;96467.19;;;2.00;100.00
73941;BME280;62294;48.554;10.202;2023-04-03T01:07:28;96471.97;;;1.79;100.00
73941;BME280;62294;48.554;10.202;2023-04-03T01:09:57;96467.75;;;1.86;100.00
73941;BME280;62294;48.554;10.202;2023-04-03T01:12:28;96459.88;;;1.86;100.00
73941;BME280;62294;48.554;10.202;2023-04-03T01:15:00;96462.16;;;1.81;100.00
73941;BME280;62294;48.554;10.202;2023-04-03T01:17:29;96470.78;;;1.74;100.00
73941;BME280;62294;48.554;10.202;2023-04-03T01:25:07;96466.63;;;1.89;100.00
73941;BME280;62294;48.554;10.202;2023-04-03T01:27:33;96464.59;;;1.83;100.00
73941;BME280;62294;48.554;10.202;2023-04-03T01:30:01;96458.03;;;1.79;100.00
73941;BME280;62294;48.554;10.202;2023-04-03T01:32:27;96456.81;;;1.91;100.00
73941;BME280;62294;48.554;10.202;2023-04-03T01:34:54;96460.91;;;1.68;100.00
73941;BME280;62294;48.554;10.202;2023-04-03T01:37:20;96456.09;;;1.55;100.00
73941;BME280;62294;48.554;10.202;2023-04-03T01:39:47;96449.22;;;1.80;100.00
73941;BME280;62294;48.554;10.202;2023-04-03T01:42:13;96456.53;;;1.76;100.00
73941;BME280;62294;48.554;10.202;2023-04-03T01:44:40;96455.94;;;1.82;100.00
73941;BME280;62294;48.554;10.202;2023-04-03T01:47:07;96449.81;;;1.74;100.00
73941;BME280;62294;48.554;10.202;2023-04-03T01:49:34;96443.44;;;1.76;100.00
73941;BME280;62294;48.554;10.202;2023-04-03T01:52:00;96442.13;;;1.72;100.00
73941;BME280;62294;48.554;10.202;2023-04-03T01:54:27;96440.91;;;1.92;100.00
73941;BME280;62294;48.554;10.202;2023-04-03T01:56:53;96437.13;;;1.87;100.00
73941;BME280;62294;48.554;10.202;2023-04-03T01:59:20;96428.25;;;1.80;100.00
73941;BME280;62294;48.554;10.202;2023-04-03T02:01:46;96429.88;;;1.81;100.00
73941;BME280;62294;48.554;10.202;2023-04-03T02:04:13;96429.88;;;1.81;100.00
73941;BME280;62294;48.554;10.202;2023-04-03T02:06:39;96440.16;;;1.74;100.00
73941;BME280;62294;48.554;10.202;2023-04-03T02:09:06;96434.88;;;1.66;100.00
73941;BME280;62294;48.554;10.202;2023-04-03T02:11:33;96440.69;;;1.78;100.00
73941;BME280;62294;48.554;10.202;2023-04-03T02:14:00;96431.22;;;1.85;100.00
73941;BME280;62294;48.554;10.202;2023-04-03T02:16:26;96445.47;;;1.82;100.00
73941;BME280;62294;48.554;10.202;2023-04-03T02:18:53;96442.88;;;1.65;100.00
73941;BME280;62294;48.554;10.202;2023-04-03T02:21:19;96445.63;;;1.55;100.00
73941;BME280;62294;48.554;10.202;2023-04-03T02:23:46;96436.28;;;1.53;100.00
73941;BME280;62294;48.554;10.202;2023-04-03T02:26:14;96447.22;;;1.48;100.00
73941;BME280;62294;48.554;10.202;2023-04-03T02:28:41;96444.06;;;1.44;100.00
73941;BME280;62294;48.554;10.202;2023-04-03T02:31:08;96452.59;;;1.47;100.00
73941;BME280;62294;48.554;10.202;2023-04-03T02:33:36;96463.19;;;1.63;100.00
73941;BME280;62294;48.554;10.202;2023-04-03T02:36:05;96465.88;;;1.71;100.00
73941;BME280;62294;48.554;10.202;2023-04-03T02:38:32;96484.69;;;1.49;100.00
73941;BME280;62294;48.554;10.202;2023-04-03T02:41:03;96493.94;;;1.61;100.00
73941;BME280;62294;48.554;10.202;2023-04-03T02:43:30;96488.03;;;1.59;100.00
73941;BME280;62294;48.554;10.202;2023-04-03T02:45:56;96487.31;;;1.74;100.00
73941;BME280;62294;48.554;10.202;2023-04-03T02:48:23;96497.09;;;1.64;100.00
73941;BME280;62294;48.554;10.202;2023-04-03T02:50:50;96505.09;;;1.63;100.00
73941;BME280;62294;48.554;10.202;2023-04-03T02:53:16;96503.34;;;1.71;100.00
73941;BME280;62294;48.554;10.202;2023-04-03T02:55:43;96505.41;;;1.60;100.00
73941;BME280;62294;48.554;10.202;2023-04-03T02:58:10;96506.44;;;1.67;100.00
73941;BME280;62294;48.554;10.202;2023-04-03T03:00:37;96507.66;;;1.55;100.00
73941;BME280;62294;48.554;10.202;2023-04-03T03:03:04;96510.03;;;1.66;100.00
73941;BME280;62294;48.554;10.202;2023-04-03T03:05:31;96508.13;;;1.50;100.00
73941;BME280;62294;48.554;10.202;2023-04-03T03:07:57;96514.72;;;1.36;100.00
73941;BME280;62294;48.554;10.202;2023-04-03T03:10:24;96504.53;;;1.33;100.00
73941;BME280;62294;48.554;10.202;2023-04-03T03:12:50;96493.66;;;1.46;100.00
73941;BME280;62294;48.554;10.202;2023-04-03T03:15:17;96497.78;;;1.49;100.00
73941;BME280;62294;48.554;10.202;2023-04-03T03:17:45;96493.66;;;1.64;100.00
73941;BME280;62294;48.554;10.202;2023-04-03T03:20:12;96495.75;;;1.60;100.00
73941;BME280;62294;48.554;10.202;2023-04-03T03:22:41;96499.28;;;1.51;100.00
73941;BME280;62294;48.554;10.202;2023-04-03T03:25:08;96503.00;;;1.49;100.00
73941;BME280;62294;48.554;10.202;2023-04-03T03:27:34;96499.94;;;1.53;100.00
73941;BME280;62294;48.554;10.202;2023-04-03T03:30:01;96492.34;;;1.42;100.00
73941;BME280;62294;48.554;10.202;2023-04-03T03:32:28;96491.16;;;1.62;100.00
73941;BME280;62294;48.554;10.202;2023-04-03T03:34:54;96494.19;;;1.50;100.00
73941;BME280;62294;48.554;10.202;2023-04-03T03:37:20;96499.72;;;1.47;100.00
73941;BME280;62294;48.554;10.202;2023-04-03T03:39:47;96509.16;;;1.39;100.00
73941;BME280;62294;48.554;10.202;2023-04-03T03:42:14;96645.72;;;1.44;100.00
73941;BME280;62294;48.554;10.202;2023-04-03T03:44:40;96639.69;;;1.62;100.00
73941;BME280;62294;48.554;10.202;2023-04-03T03:47:07;96627.56;;;1.61;100.00
73941;BME280;62294;48.554;10.202;2023-04-03T03:49:36;96637.41;;;1.31;100.00
73941;BME280;62294;48.554;10.202;2023-04-03T03:52:03;96633.69;;;1.52;100.00
73941;BME280;62294;48.554;10.202;2023-04-03T03:54:30;96632.94;;;1.41;100.00
73941;BME280;62294;48.554;10.202;2023-04-03T03:56:56;96636.69;;;1.57;100.00
73941;BME280;62294;48.554;10.202;2023-04-03T03:59:23;96630.41;;;1.32;100.00
73941;BME280;62294;48.554;10.202;2023-04-03T04:01:49;96633.91;;;1.40;100.00
73941;BME280;62294;48.554;10.202;2023-04-03T04:04:16;96638.88;;;1.43;100.00
73941;BME280;62294;48.554;10.202;2023-04-03T04:06:43;96635.19;;;1.36;100.00
73941;BME280;62294;48.554;10.202;2023-04-03T04:09:10;96630.09;;;1.35;100.00
73941;BME280;62294;48.554;10.202;2023-04-03T04:11:36;96641.00;;;1.30;100.00
73941;BME280;62294;48.554;10.202;2023-04-03T04:14:03;96639.75;;;1.34;100.00
73941;BME280;62294;48.554;10.202;2023-04-03T04:16:29;96636.06;;;1.27;100.00
73941;BME280;62294;48.554;10.202;2023-04-03T04:18:56;96643.50;;;1.32;100.00
73941;BME280;62294;48.554;10.202;2023-04-03T04:21:22;96643.03;;;1.36;100.00
73941;BME280;62294;48.554;10.202;2023-04-03T04:23:49;96644.91;;;1.44;100.00
73941;BME280;62294;48.554;10.202;2023-04-03T04:26:16;96645.94;;;1.33;100.00
73941;BME280;62294;48.554;10.202;2023-04-03T04:28:42;96640.94;;;1.40;100.00
73941;BME280;62294;48.554;10.202;2023-04-03T04:31:08;96642.81;;;1.48;100.00
73941;BME280;62294;48.554;10.202;2023-04-03T04:33:35;96639.66;;;1.26;100.00
73941;BME280;62294;48.554;10.202;2023-04-03T04:36:02;96638.91;;;1.16;100.00
73941;BME280;62294;48.554;10.202;2023-04-03T04:38:29;96634.19;;;1.37;100.00
73941;BME280;62294;48.554;10.202;2023-04-03T04:40:56;96637.72;;;1.28;100.00
73941;BME280;62294;48.554;10.202;2023-04-03T04:43:22;96634.03;;;1.21;100.00
73941;BME280;62294;48.554;10.202;2023-04-03T04:45:48;96626.38;;;1.10;100.00
73941;BME280;62294;48.554;10.202;2023-04-03T04:48:15;96626.09;;;1.13;100.00
73941;BME280;62294;48.554;10.202;2023-04-03T04:50:42;96630.00;;;1.27;100.00
73941;BME280;62294;48.554;10.202;2023-04-03T04:53:08;96629.63;;;1.22;100.00
73941;BME280;62294;48.554;10.202;2023-04-03T04:55:35;96628.91;;;1.29;100.00
73941;BME280;62294;48.554;10.202;2023-04-03T04:58:02;96623.72;;;1.20;100.00
73941;BME280;62294;48.554;10.202;2023-04-03T05:00:28;96622.88;;;1.19;100.00
73941;BME280;62294;48.554;10.202;2023-04-03T05:02:55;96629.28;;;1.07;100.00
73941;BME280;62294;48.554;10.202;2023-04-03T05:05:21;96627.66;;;1.06;100.00
73941;BME280;62294;48.554;10.202;2023-04-03T05:07:48;96630.50;;;1.13;100.00
73941;BME280;62294;48.554;10.202;2023-04-03T05:10:15;96628.44;;;1.16;100.00
73941;BME280;62294;48.554;10.202;2023-04-03T05:12:41;96628.13;;;1.19;100.00
73941;BME280;62294;48.554;10.202;2023-04-03T05:15:08;96627.72;;;1.14;100.00
73941;BME280;62294;48.554;10.202;2023-04-03T05:17:35;96636.19;;;1.26;100.00
73941;BME280;62294;48.554;10.202;2023-04-03T05:20:03;96640.63;;;1.25;100.00
73941;BME280;62294;48.554;10.202;2023-04-03T05:22:30;96634.53;;;1.07;100.00
73941;BME280;62294;48.554;10.202;2023-04-03T05:24:57;96634.91;;;1.12;100.00
73941;BME280;62294;48.554;10.202;2023-04-03T05:27:23;96643.53;;;1.22;100.00
73941;BME280;62294;48.554;10.202;2023-04-03T05:29:50;96636.66;;;1.21;100.00
73941;BME280;62294;48.554;10.202;2023-04-03T05:32:17;96643.00;;;1.19;100.00
73941;BME280;62294;48.554;10.202;2023-04-03T05:34:43;96644.13;;;1.16;100.00
73941;BME280;62294;48.554;10.202;2023-04-03T05:37:09;96640.19;;;1.03;100.00
73941;BME280;62294;48.554;10.202;2023-04-03T05:39:36;96640.06;;;1.04;100.00
73941;BME280;62294;48.554;10.202;2023-04-03T05:42:04;96644.22;;;1.24;100.00
73941;BME280;62294;48.554;10.202;2023-04-03T05:44:30;96645.19;;;1.23;100.00
73941;BME280;62294;48.554;10.202;2023-04-03T05:46:57;96643.16;;;1.35;100.00
73941;BME280;62294;48.554;10.202;2023-04-03T05:49:23;96640.94;;;1.22;100.00
73941;BME280;62294;48.554;10.202;2023-04-03T05:51:50;96648.38;;;1.17;100.00
73941;BME280;62294;48.554;10.202;2023-04-03T05:54:21;96639.88;;;1.33;100.00
73941;BME280;62294;48.554;10.202;2023-04-03T05:56:50;96643.13;;;1.44;100.00
73941;BME280;62294;48.554;10.202;2023-04-03T05:59:17;96654.06;;;1.13;100.00
73941;BME280;62294;48.554;10.202;2023-04-03T06:01:44;96647.44;;;1.18;100.00
73941;BME280;62294;48.554;10.202;2023-04-03T06:04:11;96650.13;;;1.26;100.00
73941;BME280;62294;48.554;10.202;2023-04-03T06:06:53;96649.84;;;1.29;100.00
73941;BME280;62294;48.554;10.202;2023-04-03T06:09:24;96646.41;;;1.47;100.00
73941;BME280;62294;48.554;10.202;2023-04-03T06:11:51;96654.19;;;1.56;100.00
73941;BME280;62294;48.554;10.202;2023-04-03T06:14:18;96657.03;;;1.63;100.00
73941;BME280;62294;48.554;10.202;2023-04-03T06:16:45;96655.25;;;1.81;100.00
73941;BME280;62294;48.554;10.202;2023-04-03T06:19:12;96663.41;;;1.95;100.00
73941;BME280;62294;48.554;10.202;2023-04-03T06:21:38;96660.44;;;1.55;100.00
73941;BME280;62294;48.554;10.202;2023-04-03T06:24:06;96658.47;;;1.92;100.00
73941;BME280;62294;48.554;10.202;2023-04-03T06:26:33;96667.41;;;1.82;100.00
73941;BME280;62294;48.554;10.202;2023-04-03T06:29:00;96674.59;;;1.80;100.00
73941;BME280;62294;48.554;10.202;2023-04-03T06:31:26;96673.28;;;2.01;100.00
73941;BME280;62294;48.554;10.202;2023-04-03T06:33:53;96676.66;;;2.11;100.00
73941;BME280;62294;48.554;10.202;2023-04-03T06:36:20;96685.03;;;2.33;100.00
73941;BME280;62294;48.554;10.202;2023-04-03T06:38:47;96678.44;;;2.54;100.00
73941;BME280;62294;48.554;10.202;2023-04-03T06:41:14;96688.06;;;2.46;100.00
73941;BME280;62294;48.554;10.202;2023-04-03T06:43:43;96688.56;;;2.49;100.00
73941;BME280;62294;48.554;10.202;2023-04-03T06:46:15;96692.19;;;2.05;100.00
73941;BME280;62294;48.554;10.202;2023-04-03T06:48:42;96681.53;;;2.06;100.00
73941;BME280;62294;48.554;10.202;2023-04-03T06:51:23;96696.66;;;1.77;100.00
73941;BME280;62294;48.554;10.202;2023-04-03T06:53:52;96700.19;;;2.21;100.00
73941;BME280;62294;48.554;10.202;2023-04-03T06:56:19;96696.84;;;2.19;100.00
73941;BME280;62294;48.554;10.202;2023-04-03T06:58:46;96695.91;;;2.20;100.00
73941;BME280;62294;48.554;10.202;2023-04-03T07:01:14;96700.84;;;1.88;100.00
73941;BME280;62294;48.554;10.202;2023-04-03T07:03:41;96694.03;;;1.95;100.00
73941;BME280;62294;48.554;10.202;2023-04-03T07:06:11;96692.28;;;2.39;100.00
73941;BME280;62294;48.554;10.202;2023-04-03T07:08:39;96695.88;;;2.63;100.00
73941;BME280;62294;48.554;10.202;2023-04-03T07:11:06;96708.03;;;2.64;100.00
73941;BME280;62294;48.554;10.202;2023-04-03T07:13:32;96708.44;;;2.52;100.00
73941;BME280;62294;48.554;10.202;2023-04-03T07:15:59;96710.22;;;3.03;100.00
73941;BME280;62294;48.554;10.202;2023-04-03T07:18:26;96714.16;;;3.32;100.00
73941;BME280;62294;48.554;10.202;2023-04-03T07:20:53;96718.50;;;3.57;100.00
73941;BME280;62294;48.554;10.202;2023-04-03T07:23:19;96717.03;;;3.63;100.00
73941;BME280;62294;48.554;10.202;2023-04-03T07:25:47;96729.91;;;3.32;100.00
73941;BME280;62294;48.554;10.202;2023-04-03T07:28:15;96740.81;;;3.12;100.00
73941;BME280;62294;48.554;10.202;2023-04-03T07:30:53;96734.28;;;2.47;100.00
73941;BME280;62294;48.554;10.202;2023-04-03T07:33:22;96720.00;;;3.26;100.00
73941;BME280;62294;48.554;10.202;2023-04-03T07:35:49;96721.75;;;3.51;100.00
73941;BME280;62294;48.554;10.202;2023-04-03T07:38:15;96734.25;;;3.16;100.00
73941;BME280;62294;48.554;10.202;2023-04-03T07:40:47;96731.91;;;2.79;100.00
73941;BME280;62294;48.554;10.202;2023-04-03T07:43:14;96732.50;;;3.66;100.00
73941;BME280;62294;48.554;10.202;2023-04-03T07:45:41;96733.28;;;4.08;100.00
73941;BME280;62294;48.554;10.202;2023-04-03T07:48:07;96745.94;;;4.13;100.00
73941;BME280;62294;48.554;10.202;2023-04-03T07:50:34;96744.91;;;3.98;100.00
73941;BME280;62294;48.554;10.202;2023-04-03T07:53:00;96743.16;;;4.55;100.00
73941;BME280;62294;48.554;10.202;2023-04-03T07:55:27;96747.28;;;4.33;100.00
73941;BME280;62294;48.554;10.202;2023-04-03T07:57:54;96754.16;;;4.26;100.00
73941;BME280;62294;48.554;10.202;2023-04-03T08:00:21;96751.53;;;4.26;100.00
73941;BME280;62294;48.554;10.202;2023-04-03T08:02:47;96754.16;;;3.60;100.00
73941;BME280;62294;48.554;10.202;2023-04-03T08:05:18;96753.34;;;3.59;100.00
73941;BME280;62294;48.554;10.202;2023-04-03T08:07:45;96754.72;;;3.38;100.00
73941;BME280;62294;48.554;10.202;2023-04-03T08:10:13;96762.97;;;3.17;100.00
73941;BME280;62294;48.554;10.202;2023-04-03T08:12:39;96753.75;;;3.39;100.00
73941;BME280;62294;48.554;10.202;2023-04-03T08:15:07;96752.16;;;4.20;100.00
73941;BME280;62294;48.554;10.202;2023-04-03T08:17:34;96773.97;;;3.88;100.00
73941;BME280;62294;48.554;10.202;2023-04-03T08:20:03;96772.00;;;3.90;100.00
73941;BME280;62294;48.554;10.202;2023-04-03T08:22:32;96771.34;;;3.88;100.00
73941;BME280;62294;48.554;10.202;2023-04-03T08:24:59;96775.31;;;4.00;100.00
73941;BME280;62294;48.554;10.202;2023-04-03T08:27:26;96780.03;;;3.47;100.00
73941;BME280;62294;48.554;10.202;2023-04-03T08:29:54;96761.53;;;3.56;100.00
73941;BME280;62294;48.554;10.202;2023-04-03T08:32:20;96767.13;;;4.03;100.00
73941;BME280;62294;48.554;10.202;2023-04-03T08:34:47;96771.75;;;4.25;100.00
73941;BME280;62294;48.554;10.202;2023-04-03T08:37:14;96770.94;;;4.41;100.00
73941;BME280;62294;48.554;10.202;2023-04-03T08:39:42;96768.81;;;4.28;100.00
73941;BME280;62294;48.554;10.202;2023-04-03T08:42:24;96771.78;;;4.42;100.00
73941;BME280;62294;48.554;10.202;2023-04-03T08:45:42;96767.84;;;4.54;100.00
73941;BME280;62294;48.554;10.202;2023-04-03T08:47:50;96766.81;;;4.87;100.00
73941;BME280;62294;48.554;10.202;2023-04-03T08:50:28;96774.06;;;4.53;100.00
73941;BME280;62294;48.554;10.202;2023-04-03T08:52:57;96781.00;;;4.54;100.00
73941;BME280;62294;48.554;10.202;2023-04-03T08:55:39;96770.47;;;4.86;100.00
73941;BME280;62294;48.554;10.202;2023-04-03T08:58:12;96783.09;;;4.26;100.00
73941;BME280;62294;48.554;10.202;2023-04-03T09:00:46;96787.91;;;4.71;100.00
73941;BME280;62294;48.554;10.202;2023-04-03T09:03:15;96799.09;;;4.57;100.00
73941;BME280;62294;48.554;10.202;2023-04-03T09:06:20;96788.38;;;4.34;100.00
73941;BME280;62294;48.554;10.202;2023-04-03T09:09:13;96788.84;;;4.29;100.00
73941;BME280;62294;48.554;10.202;2023-04-03T09:17:21;96795.44;;;4.50;100.00
73941;BME280;62294;48.554;10.202;2023-04-03T09:22:46;96784.44;;;4.46;100.00
73941;BME280;62294;48.554;10.202;2023-04-03T09:25:25;96784.59;;;4.37;100.00
73941;BME280;62294;48.554;10.202;2023-04-03T09:27:52;96788.78;;;3.89;100.00
73941;BME280;62294;48.554;10.202;2023-04-03T09:30:24;96794.47;;;3.77;100.00
73941;BME280;62294;48.554;10.202;2023-04-03T09:32:54;96785.28;;;4.47;100.00
73941;BME280;62294;48.554;10.202;2023-04-03T09:35:29;96785.25;;;4.87;100.00
73941;BME280;62294;48.554;10.202;2023-04-03T09:40:41;96798.69;;;4.03;100.00
73941;BME280;62294;48.554;10.202;2023-04-03T09:45:45;96793.72;;;4.00;100.00
73941;BME280;62294;48.554;10.202;2023-04-03T09:55:54;96777.81;;;5.15;100.00
73941;BME280;62294;48.554;10.202;2023-04-03T09:58:33;96799.09;;;4.57;100.00
73941;BME280;62294;48.554;10.202;2023-04-03T10:04:21;96784.81;;;3.18;100.00
73941;BME280;62294;48.554;10.202;2023-04-03T10:06:51;96800.69;;;3.34;100.00
73941;BME280;62294;48.554;10.202;2023-04-03T10:09:24;96790.50;;;3.73;100.00
73941;BME280;62294;48.554;10.202;2023-04-03T10:12:08;96797.09;;;3.35;100.00
73941;BME280;62294;48.554;10.202;2023-04-03T10:14:58;96793.78;;;2.81;100.00
73941;BME280;62294;48.554;10.202;2023-04-03T10:17:37;96786.41;;;3.11;100.00
73941;BME280;62294;48.554;10.202;2023-04-03T10:20:27;96782.25;;;2.74;100.00
73941;BME280;62294;48.554;10.202;2023-04-03T10:25:52;96769.06;;;3.18;100.00
73941;BME280;62294;48.554;10.202;2023-04-03T10:37:01;96759.06;;;3.55;100.00
73941;BME280;62294;48.554;10.202;2023-04-03T10:39:39;96759.81;;;3.81;100.00
73941;BME280;62294;48.554;10.202;2023-04-03T10:48:09;96774.97;;;3.87;100.00
73941;BME280;62294;48.554;10.202;2023-04-03T10:53:39;96771.47;;;3.37;100.00
73941;BME280;62294;48.554;10.202;2023-04-03T11:02:22;96768.47;;;4.31;100.00
73941;BME280;62294;48.554;10.202;2023-04-03T11:04:53;96784.44;;;4.22;100.00
73941;BME280;62294;48.554;10.202;2023-04-03T11:07:29;96783.50;;;3.89;100.00
73941;BME280;62294;48.554;10.202;2023-04-03T11:10:03;96778.00;;;4.32;100.00
73941;BME280;62294;48.554;10.202;2023-04-03T11:12:44;96786.88;;;4.31;100.00
73941;BME280;62294;48.554;10.202;2023-04-03T11:15:16;96783.81;;;3.78;100.00
73941;BME280;62294;48.554;10.202;2023-04-03T11:17:48;96777.84;;;4.26;100.00
73941;BME280;62294;48.554;10.202;2023-04-03T11:20:24;96780.69;;;3.41;100.00
73941;BME280;62294;48.554;10.202;2023-04-03T11:23:00;96787.31;;;3.19;100.00
73941;BME280;62294;48.554;10.202;2023-04-03T11:25:32;96776.06;;;3.35;100.00
73941;BME280;62294;48.554;10.202;2023-04-03T11:28:03;96775.78;;;3.46;100.00
73941;BME280;62294;48.554;10.202;2023-04-03T11:30:39;96765.84;;;4.31;100.00
73941;BME280;62294;48.554;10.202;2023-04-03T11:33:17;96771.25;;;4.14;100.00
73941;BME280;62294;48.554;10.202;2023-04-03T11:35:51;96772.75;;;4.32;100.00
73941;BME280;62294;48.554;10.202;2023-04-03T11:38:24;96772.06;;;5.19;100.00
73941;BME280;62294;48.554;10.202;2023-04-03T11:40:54;96773.22;;;4.36;100.00
73941;BME280;62294;48.554;10.202;2023-04-03T11:43:24;96768.81;;;4.53;100.00
73941;BME280;62294;48.554;10.202;2023-04-03T11:45:58;96772.63;;;5.53;100.00
73941;BME280;62294;48.554;10.202;2023-04-03T11:53:40;96781.81;;;4.54;100.00
73941;BME280;62294;48.554;10.202;2023-04-03T12:04:18;96770.09;;;5.05;100.00
73941;BME280;62294;48.554;10.202;2023-04-03T12:11:59;96777.84;;;5.61;100.00
73941;BME280;62294;48.554;10.202;2023-04-03T12:14:28;96777.69;;;4.44;100.00
73941;BME280;62294;48.554;10.202;2023-04-03T12:16:55;96783.91;;;4.10;100.00
73941;BME280;62294;48.554;10.202;2023-04-03T12:19:36;96792.16;;;4.40;100.00
73941;BME280;62294;48.554;10.202;2023-04-03T12:22:09;96788.16;;;4.03;100.00
73941;BME280;62294;48.554;10.202;2023-04-03T12:24:39;96792.31;;;3.72;100.00
73941;BME280;62294;48.554;10.202;2023-04-03T12:27:33;96788.38;;;4.26;100.00
73941;BME280;62294;48.554;10.202;2023-04-03T12:35:36;96777.81;;;6.39;100.00
73941;BME280;62294;48.554;10.202;2023-04-03T12:46:37;96777.03;;;4.66;100.00
73941;BME280;62294;48.554;10.202;2023-04-03T12:49:18;96770.63;;;4.44;100.00
73941;BME280;62294;48.554;10.202;2023-04-03T12:51:49;96782.31;;;4.74;100.00
73941;BME280;62294;48.554;10.202;2023-04-03T12:54:19;96770.00;;;5.92;100.00
73941;BME280;62294;48.554;10.202;2023-04-03T12:56:48;96768.53;;;5.90;100.00
73941;BME280;62294;48.554;10.202;2023-04-03T12:59:25;96774.16;;;5.40;100.00
73941;BME280;62294;48.554;10.202;2023-04-03T13:01:58;96766.66;;;4.96;100.00
73941;BME280;62294;48.554;10.202;2023-04-03T13:04:26;96768.19;;;5.93;100.00
73941;BME280;62294;48.554;10.202;2023-04-03T13:06:54;96756.09;;;5.67;100.00
73941;BME280;62294;48.554;10.202;2023-04-03T13:09:29;96758.50;;;5.30;100.00
73941;BME280;62294;48.554;10.202;2023-04-03T13:12:10;96762.34;;;5.20;100.00
73941;BME280;62294;48.554;10.202;2023-04-03T13:14:38;96766.41;;;5.38;100.00
73941;BME280;62294;48.554;10.202;2023-04-03T13:17:14;96754.13;;;5.61;100.00
73941;BME280;62294;48.554;10.202;2023-04-03T13:19:44;96752.47;;;6.53;100.00
73941;BME280;62294;48.554;10.202;2023-04-03T13:22:34;96758.28;;;8.31;100.00
73941;BME280;62294;48.554;10.202;2023-04-03T13:25:07;96745.00;;;6.79;100.00
73941;BME280;62294;48.554;10.202;2023-04-03T13:27:35;96754.34;;;6.21;100.00
73941;BME280;62294;48.554;10.202;2023-04-03T13:30:03;96759.28;;;6.70;100.00
73941;BME280;62294;48.554;10.202;2023-04-03T13:32:31;96751.63;;;6.75;100.00
73941;BME280;62294;48.554;10.202;2023-04-03T13:34:58;96752.88;;;6.19;100.00
73941;BME280;62294;48.554;10.202;2023-04-03T13:37:54;96765.16;;;5.10;100.00
73941;BME280;62294;48.554;10.202;2023-04-03T13:40:21;96765.94;;;5.19;100.00
73941;BME280;62294;48.554;10.202;2023-04-03T13:43:01;96775.72;;;4.94;100.00
73941;BME280;62294;48.554;10.202;2023-04-03T13:45:30;96772.63;;;4.74;100.00
73941;BME280;62294;48.554;10.202;2023-04-03T13:48:17;96768.09;;;5.23;100.00
73941;BME280;62294;48.554;10.202;2023-04-03T13:51:01;96768.56;;;5.82;100.00
73941;BME280;62294;48.554;10.202;2023-04-03T13:53:30;96767.25;;;6.39;100.00
73941;BME280;62294;48.554;10.202;2023-04-03T13:58:31;96770.81;;;5.54;100.00
73941;BME280;62294;48.554;10.202;2023-04-03T14:01:19;96762.72;;;5.63;100.00
73941;BME280;62294;48.554;10.202;2023-04-03T14:03:59;96765.22;;;5.41;100.00
73941;BME280;62294;48.554;10.202;2023-04-03T14:06:29;96759.97;;;5.80;100.00
73941;BME280;62294;48.554;10.202;2023-04-03T14:08:56;96770.78;;;4.99;100.00
73941;BME280;62294;48.554;10.202;2023-04-03T14:11:24;96770.72;;;5.31;100.00
73941;BME280;62294;48.554;10.202;2023-04-03T14:13:55;96766.78;;;5.19;100.00
73941;BME280;62294;48.554;10.202;2023-04-03T14:16:28;96755.47;;;4.86;100.00
73941;BME280;62294;48.554;10.202;2023-04-03T14:18:56;96756.66;;;4.60;100.00
73941;BME280;62294;48.554;10.202;2023-04-03T14:21:23;96770.13;;;4.97;100.00
73941;BME280;62294;48.554;10.202;2023-04-03T14:23:50;96763.78;;;5.30;100.00
73941;BME280;62294;48.554;10.202;2023-04-03T14:26:21;96755.88;;;5.38;100.00
73941;BME280;62294;48.554;10.202;2023-04-03T14:28:50;96758.94;;;4.95;100.00
73941;BME280;62294;48.554;10.202;2023-04-03T14:31:19;96748.75;;;5.47;100.00
73941;BME280;62294;48.554;10.202;2023-04-03T14:33:46;96748.38;;;5.58;100.00
73941;BME280;62294;48.554;10.202;2023-04-03T14:36:15;96748.94;;;6.15;100.00